Tetbury, United Kingdom
Current Conditions -  °F | °C
As of 3:18 PM on Wednesday 26 Nov 2014 (Local Time) from EGVA Reporting Station
Overcast Overcast  
Wind Chill: 46°   Ceiling: 800
Heat Index: 46°   Visibility: 6mi
Dew Point: 45°   Wind: 3mph
Humidity: 93%   Direction: 330°NNW
Pressure: 29.81"   Gusts: NA
Location:  51.64°N, 2.16°W
Report Text: EGVA 261518Z AUTO 33003KT 9999 OVC008 08/07 A2981 RMK AO2 $
Loading
Personal Weather Stations






























Interactive Weather Map New forecast layout! Learn more

10-Day Weather Forecast

Advertisements
Track Severe Weather on mobile